createdAt,value
2023-02-06T00:02:07.724Z,-7.24
2023-02-06T00:04:53.297Z,-7.26
2023-02-06T00:07:38.885Z,-7.27
2023-02-06T00:10:24.305Z,-7.29
2023-02-06T00:13:09.814Z,-7.27
2023-02-06T00:15:55.063Z,-7.27
2023-02-06T00:18:40.496Z,-7.28
2023-02-06T00:21:27.299Z,-7.29
2023-02-06T00:24:12.962Z,-7.32
2023-02-06T00:26:58.230Z,-7.34
2023-02-06T00:29:43.526Z,-7.34
2023-02-06T00:32:28.962Z,-7.33
2023-02-06T00:35:14.317Z,-7.33
2023-02-06T00:38:00.837Z,-7.33
2023-02-06T00:40:46.320Z,-7.36
2023-02-06T00:43:32.126Z,-7.37
2023-02-06T00:46:17.952Z,-7.39
2023-02-06T00:49:03.779Z,-7.39
2023-02-06T00:51:49.219Z,-7.37
2023-02-06T00:54:34.513Z,-7.37
2023-02-06T00:57:19.791Z,-7.36
2023-02-06T01:00:08.243Z,-7.37
2023-02-06T01:02:53.597Z,-7.36
2023-02-06T01:05:39.474Z,-7.38
2023-02-06T01:08:25.197Z,-7.39
2023-02-06T01:11:18.974Z,-7.37
2023-02-06T01:14:04.854Z,-7.35
2023-02-06T01:16:50.045Z,-7.34
2023-02-06T01:19:38.147Z,-7.34
2023-02-06T01:22:25.184Z,-7.35
2023-02-06T01:25:10.441Z,-7.37
2023-02-06T01:27:57.341Z,-7.37
2023-02-06T01:30:42.768Z,-7.36
2023-02-06T01:33:28.034Z,-7.35
2023-02-06T01:36:14.978Z,-7.35
2023-02-06T01:39:00.221Z,-7.38
2023-02-06T01:41:46.520Z,-7.38
2023-02-06T01:44:33.065Z,-7.41
2023-02-06T01:47:18.287Z,-7.40
2023-02-06T01:50:04.268Z,-7.41
2023-02-06T01:52:51.079Z,-7.44
2023-02-06T01:55:38.703Z,-7.46
2023-02-06T01:58:35.721Z,-7.49
2023-02-06T02:01:22.097Z,-7.50
2023-02-06T02:04:13.154Z,-7.52
2023-02-06T02:07:13.918Z,-7.53
2023-02-06T02:10:02.944Z,-7.57
2023-02-06T02:12:48.751Z,-7.58
2023-02-06T02:15:59.640Z,-7.65
2023-02-06T02:19:42.710Z,-7.66
2023-02-06T02:22:46.279Z,-7.66
2023-02-06T02:25:56.361Z,-7.65
2023-02-06T02:28:51.111Z,-7.65
2023-02-06T02:31:45.492Z,-7.66
2023-02-06T02:34:40.104Z,-7.69
2023-02-06T02:37:55.312Z,-7.68
2023-02-06T02:40:58.468Z,-7.69
2023-02-06T02:43:51.515Z,-7.69
2023-02-06T02:46:44.928Z,-7.71
2023-02-06T02:49:34.391Z,-7.74
2023-02-06T02:52:20.147Z,-7.76
2023-02-06T02:55:22.342Z,-7.76
2023-02-06T02:58:16.641Z,-7.76
2023-02-06T03:01:06.096Z,-7.78
2023-02-06T03:03:56.460Z,-7.79
2023-02-06T03:06:56.242Z,-7.78
2023-02-06T03:09:45.963Z,-7.79
2023-02-06T03:12:53.677Z,-7.79
2023-02-06T03:16:00.192Z,-7.83
2023-02-06T03:19:11.141Z,-7.87
2023-02-06T03:21:57.400Z,-7.91
2023-02-06T03:24:43.027Z,-7.97
2023-02-06T03:27:30.375Z,-7.99
2023-02-06T03:30:19.294Z,-7.99
2023-02-06T03:33:07.580Z,-8.00
2023-02-06T03:35:56.904Z,-8.00
2023-02-06T03:38:42.231Z,-8.01
2023-02-06T03:41:32.829Z,-8.00
2023-02-06T03:44:24.572Z,-8.02
2023-02-06T03:47:11.776Z,-8.03
2023-02-06T03:50:00.371Z,-8.04
2023-02-06T03:52:49.200Z,-8.07
2023-02-06T03:55:36.609Z,-8.08
2023-02-06T03:58:24.497Z,-8.08
2023-02-06T04:01:11.534Z,-8.09
2023-02-06T04:03:58.502Z,-8.10
2023-02-06T04:06:44.472Z,-8.13
2023-02-06T04:09:30.136Z,-8.14
2023-02-06T04:12:16.061Z,-8.16
2023-02-06T04:15:01.718Z,-8.18
2023-02-06T04:17:59.524Z,-8.18
2023-02-06T04:20:46.345Z,-8.24
2023-02-06T04:23:31.931Z,-8.27
2023-02-06T04:26:17.634Z,-8.29
2023-02-06T04:29:03.126Z,-8.28
2023-02-06T04:31:48.606Z,-8.32
2023-02-06T04:34:36.158Z,-8.35
2023-02-06T04:37:21.330Z,-8.36
2023-02-06T04:40:07.150Z,-8.35
2023-02-06T04:42:52.952Z,-8.36
2023-02-06T04:45:38.566Z,-8.36
2023-02-06T04:48:24.295Z,-8.36
2023-02-06T04:51:09.860Z,-8.40
2023-02-06T04:53:55.700Z,-8.43
2023-02-06T04:56:41.488Z,-8.44
2023-02-06T04:59:27.130Z,-8.44
2023-02-06T05:02:12.530Z,-8.44
2023-02-06T05:04:57.596Z,-8.40
2023-02-06T05:07:42.959Z,-8.38
2023-02-06T05:10:28.377Z,-8.38
2023-02-06T05:13:14.430Z,-8.38
2023-02-06T05:16:11.721Z,-8.36
2023-02-06T05:18:57.245Z,-8.33
2023-02-06T05:21:42.704Z,-8.30
2023-02-06T05:24:28.121Z,-8.28
2023-02-06T05:27:13.381Z,-8.30
2023-02-06T05:29:58.580Z,-8.31
2023-02-06T05:32:44.297Z,-8.33
2023-02-06T05:35:29.939Z,-8.34
2023-02-06T05:38:15.625Z,-8.36
2023-02-06T05:41:01.508Z,-8.38
2023-02-06T05:43:46.809Z,-8.40
2023-02-06T05:46:32.244Z,-8.39
2023-02-06T05:49:17.720Z,-8.40
2023-02-06T05:52:02.994Z,-8.41
2023-02-06T05:54:48.288Z,-8.44
2023-02-06T05:57:33.575Z,-8.41
2023-02-06T06:00:19.223Z,-8.43
2023-02-06T06:03:05.098Z,-8.43
2023-02-06T06:05:50.702Z,-8.44
2023-02-06T06:08:36.126Z,-8.45
2023-02-06T06:11:21.760Z,-8.49
2023-02-06T06:14:07.395Z,-8.51
2023-02-06T06:16:52.909Z,-8.52
2023-02-06T06:19:38.328Z,-8.55
2023-02-06T06:22:23.554Z,-8.57
2023-02-06T06:25:08.902Z,-8.56
2023-02-06T06:27:54.232Z,-8.56
2023-02-06T06:30:39.518Z,-8.57
2023-02-06T06:33:24.795Z,-8.55
2023-02-06T06:36:14.303Z,-8.52
2023-02-06T06:38:59.702Z,-8.51
2023-02-06T06:41:45.093Z,-8.49
2023-02-06T06:44:31.599Z,-8.46
2023-02-06T06:47:17.390Z,-8.44
2023-02-06T06:50:03.168Z,-8.42
2023-02-06T06:52:48.516Z,-8.39
2023-02-06T06:55:37.028Z,-8.36
2023-02-06T06:58:23.041Z,-8.36
2023-02-06T07:01:08.963Z,-8.32
2023-02-06T07:03:54.177Z,-8.29
2023-02-06T07:06:40.628Z,-8.26
2023-02-06T07:09:26.341Z,-8.24
2023-02-06T07:12:12.035Z,-8.18
2023-02-06T07:14:57.462Z,-8.11
2023-02-06T07:17:42.757Z,-8.04
2023-02-06T07:20:28.326Z,-7.95
2023-02-06T07:23:13.951Z,-7.84
2023-02-06T07:26:02.354Z,-7.71
2023-02-06T07:28:49.756Z,-7.57
2023-02-06T07:31:37.367Z,-7.40
2023-02-06T07:34:22.673Z,-7.26
2023-02-06T07:37:08.080Z,-7.11
2023-02-06T07:39:53.272Z,-6.95
2023-02-06T07:42:40.198Z,-6.78
2023-02-06T07:45:38.360Z,-6.60
2023-02-06T07:48:23.903Z,-6.46
2023-02-06T07:51:10.211Z,-6.37
2023-02-06T07:53:55.621Z,-6.28
2023-02-06T07:56:41.184Z,-6.15
2023-02-06T07:59:26.724Z,-6.06
2023-02-06T08:02:12.677Z,-5.98
2023-02-06T08:05:00.642Z,-5.89
2023-02-06T08:07:45.871Z,-5.80
2023-02-06T08:10:31.413Z,-5.73
2023-02-06T08:13:16.990Z,-5.65
2023-02-06T08:16:11.773Z,-5.56
2023-02-06T08:18:57.020Z,-5.47
2023-02-06T08:21:42.364Z,-5.40
2023-02-06T08:24:27.884Z,-5.34
2023-02-06T08:27:13.273Z,-5.24
2023-02-06T08:29:59.394Z,-5.14
2023-02-06T08:32:44.956Z,-5.09
2023-02-06T08:35:30.370Z,-5.00
2023-02-06T08:38:15.764Z,-4.92
2023-02-06T08:41:01.243Z,-4.80
2023-02-06T08:43:47.973Z,-4.72
2023-02-06T08:46:33.812Z,-4.65
2023-02-06T08:49:22.060Z,-4.59
2023-02-06T08:52:07.562Z,-4.50
2023-02-06T08:54:53.016Z,-4.44
2023-02-06T08:57:38.510Z,-4.42
2023-02-06T09:00:23.892Z,-4.37
2023-02-06T09:03:09.074Z,-4.29
2023-02-06T09:06:09.612Z,-4.22
2023-02-06T09:08:56.657Z,-4.17
2023-02-06T09:11:43.109Z,-4.14
2023-02-06T09:14:29.426Z,-4.11
2023-02-06T09:17:14.726Z,-4.05
2023-02-06T09:20:01.296Z,-3.97
2023-02-06T09:22:46.548Z,-3.90
2023-02-06T09:25:31.759Z,-3.80
2023-02-06T09:28:17.989Z,-3.68
2023-02-06T09:31:03.741Z,-3.62
2023-02-06T09:33:49.727Z,-3.48
2023-02-06T09:36:36.799Z,-3.38
2023-02-06T09:39:22.276Z,-3.31
2023-02-06T09:42:18.467Z,-3.23
2023-02-06T09:45:17.122Z,-3.14
2023-02-06T09:48:05.448Z,-3.10
2023-02-06T09:51:05.555Z,-3.06
2023-02-06T09:54:05.924Z,-3.02
2023-02-06T09:57:02.107Z,-2.91
2023-02-06T10:00:04.279Z,-2.81
2023-02-06T10:03:19.371Z,-2.68
2023-02-06T10:06:22.607Z,-2.60
2023-02-06T10:09:14.708Z,-2.50
2023-02-06T10:12:09.417Z,-2.40
2023-02-06T10:15:02.830Z,-2.32
2023-02-06T10:17:58.454Z,-2.21
2023-02-06T10:20:53.057Z,-2.12
2023-02-06T10:24:19.529Z,-1.99
2023-02-06T10:27:11.633Z,-1.88
2023-02-06T10:29:56.843Z,-1.79
2023-02-06T10:32:49.427Z,-1.70
2023-02-06T10:35:58.834Z,-1.64
2023-02-06T10:39:13.738Z,-1.57
2023-02-06T10:42:15.292Z,-1.50
2023-02-06T10:45:20.284Z,-1.37
2023-02-06T10:48:29.288Z,-1.23
2023-02-06T10:51:35.525Z,-1.09
2023-02-06T10:54:38.475Z,-0.98
2023-02-06T10:57:28.635Z,-0.91
2023-02-06T11:00:27.448Z,-0.82
2023-02-06T11:03:17.483Z,-0.79
2023-02-06T11:06:03.070Z,-0.75
2023-02-06T11:08:49.009Z,-0.71
2023-02-06T11:11:46.702Z,-0.68
2023-02-06T11:14:38.919Z,-0.58
2023-02-06T11:17:28.211Z,-0.50
2023-02-06T11:20:35.537Z,-0.39
2023-02-06T11:23:23.558Z,-0.34
2023-02-06T11:26:19.323Z,-0.30
2023-02-06T11:29:20.378Z,-0.29
2023-02-06T11:32:08.715Z,-0.24
2023-02-06T11:34:59.220Z,-0.21
2023-02-06T11:37:44.901Z,-0.13
2023-02-06T11:40:30.159Z,-0.04
2023-02-06T11:43:26.012Z,0.03
2023-02-06T11:46:16.197Z,0.10
2023-02-06T11:49:29.165Z,-0.01
2023-02-06T11:52:30.324Z,-0.04
2023-02-06T11:55:29.661Z,-0.01
2023-02-06T11:58:14.895Z,0.03
2023-02-06T12:01:04.426Z,0.03
2023-02-06T12:03:49.930Z,0.03
2023-02-06T12:06:39.498Z,0.04
2023-02-06T12:09:25.162Z,0.05
2023-02-06T12:12:25.432Z,0.01
2023-02-06T12:15:36.231Z,-0.01
2023-02-06T12:18:24.007Z,0.06
2023-02-06T12:21:47.720Z,0.09
2023-02-06T12:24:38.928Z,0.09
2023-02-06T12:27:39.042Z,0.06
2023-02-06T12:30:28.109Z,0.05
2023-02-06T12:33:34.072Z,0.08
2023-02-06T12:36:34.192Z,0.13
2023-02-06T12:39:22.330Z,0.21
2023-02-06T12:42:26.185Z,0.24
2023-02-06T12:45:39.878Z,0.25
2023-02-06T12:48:41.569Z,0.26
2023-02-06T12:51:34.821Z,0.29
2023-02-06T12:54:33.710Z,0.32
2023-02-06T12:57:24.001Z,0.28
2023-02-06T13:00:30.676Z,0.28
2023-02-06T13:03:49.074Z,0.30
2023-02-06T13:06:55.376Z,0.32
2023-02-06T13:09:48.740Z,0.26
2023-02-06T13:12:34.969Z,0.24
2023-02-06T13:15:27.349Z,0.27
2023-02-06T13:18:34.688Z,0.20
2023-02-06T13:21:25.133Z,0.16
2023-02-06T13:24:16.169Z,0.12
2023-02-06T13:27:08.296Z,0.10
2023-02-06T13:29:54.116Z,0.12
2023-02-06T13:32:46.142Z,0.13
2023-02-06T13:35:31.769Z,0.12
2023-02-06T13:38:23.138Z,0.13
2023-02-06T13:41:14.847Z,0.11
2023-02-06T13:44:17.770Z,0.06
2023-02-06T13:47:18.594Z,0.05
2023-02-06T13:50:22.919Z,0.02
2023-02-06T13:53:30.932Z,-0.03
2023-02-06T13:56:34.910Z,-0.08
2023-02-06T13:59:28.337Z,-0.12
2023-02-06T14:02:30.159Z,-0.11
2023-02-06T14:05:22.198Z,-0.13
2023-02-06T14:08:40.121Z,-0.17
2023-02-06T14:11:56.779Z,-0.19
2023-02-06T14:15:10.460Z,-0.21
2023-02-06T14:17:59.064Z,-0.22
2023-02-06T14:21:02.456Z,-0.24
2023-02-06T14:24:11.083Z,-0.27
2023-02-06T14:27:18.216Z,-0.30
2023-02-06T14:30:18.940Z,-0.36
2023-02-06T14:33:07.352Z,-0.40
2023-02-06T14:36:09.577Z,-0.43
2023-02-06T14:39:27.133Z,-0.43
2023-02-06T14:42:35.971Z,-0.46
2023-02-06T14:45:41.714Z,-0.46
2023-02-06T14:48:38.469Z,-0.47
2023-02-06T14:51:36.522Z,-0.48
2023-02-06T14:54:36.608Z,-0.51
2023-02-06T14:57:27.768Z,-0.55
2023-02-06T15:00:18.391Z,-0.59
2023-02-06T15:03:17.480Z,-0.62
2023-02-06T15:06:10.329Z,-0.65
2023-02-06T15:08:55.856Z,-0.65
2023-02-06T15:11:41.845Z,-0.68
2023-02-06T15:14:30.526Z,-0.70
2023-02-06T15:17:21.469Z,-0.72
2023-02-06T15:20:25.511Z,-0.74
2023-02-06T15:23:28.011Z,-0.76
2023-02-06T15:26:19.606Z,-0.78
2023-02-06T15:29:15.598Z,-0.79
2023-02-06T15:32:25.847Z,-0.81
2023-02-06T15:35:40.081Z,-0.84
2023-02-06T15:38:29.195Z,-0.86
2023-02-06T15:41:15.051Z,-0.88
2023-02-06T15:44:11.955Z,-0.90
2023-02-06T15:46:58.738Z,-0.93
2023-02-06T15:49:47.132Z,-0.95
2023-02-06T15:52:47.080Z,-0.99
2023-02-06T15:55:36.505Z,-1.01
2023-02-06T15:58:24.779Z,-1.03
2023-02-06T16:01:18.453Z,-1.04
2023-02-06T16:04:18.596Z,-1.06
2023-02-06T16:07:23.670Z,-1.09
2023-02-06T16:10:09.320Z,-1.10
2023-02-06T16:12:57.380Z,-1.10
2023-02-06T16:16:01.843Z,-1.13
2023-02-06T16:18:51.834Z,-1.12
2023-02-06T16:21:42.184Z,-1.13
2023-02-06T16:24:28.092Z,-1.12
2023-02-06T16:27:25.917Z,-1.14
2023-02-06T16:30:20.407Z,-1.16
2023-02-06T16:33:37.615Z,-1.18
2023-02-06T16:36:24.145Z,-1.19
2023-02-06T16:39:09.446Z,-1.21
2023-02-06T16:41:54.863Z,-1.21
2023-02-06T16:44:45.346Z,-1.22
2023-02-06T16:47:31.545Z,-1.22
2023-02-06T16:50:17.767Z,-1.23
2023-02-06T16:53:03.562Z,-1.23
2023-02-06T16:55:50.121Z,-1.24
2023-02-06T16:58:36.043Z,-1.24
2023-02-06T17:01:25.586Z,-1.25
2023-02-06T17:04:11.104Z,-1.26
2023-02-06T17:06:57.134Z,-1.27
2023-02-06T17:09:44.243Z,-1.28
2023-02-06T17:12:30.698Z,-1.28
2023-02-06T17:15:18.914Z,-1.31
2023-02-06T17:18:04.826Z,-1.34
2023-02-06T17:20:53.120Z,-1.38
2023-02-06T17:23:38.577Z,-1.42
2023-02-06T17:26:24.717Z,-1.46
2023-02-06T17:29:14.207Z,-1.49
2023-02-06T17:32:00.775Z,-1.52
2023-02-06T17:34:48.602Z,-1.55
2023-02-06T17:37:34.274Z,-1.60
2023-02-06T17:40:24.800Z,-1.69
2023-02-06T17:43:10.846Z,-1.75
2023-02-06T17:45:56.619Z,-1.83
2023-02-06T17:48:43.266Z,-1.90
2023-02-06T17:51:29.075Z,-1.97
2023-02-06T17:54:14.433Z,-2.02
2023-02-06T17:56:59.772Z,-2.09
2023-02-06T17:59:45.143Z,-2.16
2023-02-06T18:02:30.504Z,-2.20
2023-02-06T18:05:16.022Z,-2.27
2023-02-06T18:08:01.603Z,-2.33
2023-02-06T18:10:47.073Z,-2.39
2023-02-06T18:13:32.895Z,-2.47
2023-02-06T18:16:20.633Z,-2.54
2023-02-06T18:19:06.386Z,-2.60
2023-02-06T18:21:52.061Z,-2.65
2023-02-06T18:24:37.789Z,-2.68
2023-02-06T18:27:23.298Z,-2.71
2023-02-06T18:30:09.881Z,-2.72
2023-02-06T18:32:55.386Z,-2.77
2023-02-06T18:35:44.397Z,-2.79
2023-02-06T18:38:30.165Z,-2.82
2023-02-06T18:41:34.996Z,-2.85
2023-02-06T18:44:20.332Z,-2.87
2023-02-06T18:47:05.840Z,-2.88
2023-02-06T18:49:51.452Z,-2.88
2023-02-06T18:52:37.050Z,-2.90
2023-02-06T18:55:22.915Z,-2.92
2023-02-06T18:58:08.643Z,-2.95
2023-02-06T19:00:54.383Z,-2.97
2023-02-06T19:03:40.744Z,-3.01
2023-02-06T19:06:31.774Z,-3.03
2023-02-06T19:09:20.258Z,-3.08
2023-02-06T19:12:06.620Z,-3.11
2023-02-06T19:14:52.072Z,-3.15
2023-02-06T19:17:38.206Z,-3.17
2023-02-06T19:20:23.728Z,-3.22
2023-02-06T19:23:09.022Z,-3.23
2023-02-06T19:25:54.422Z,-3.25
2023-02-06T19:28:41.237Z,-3.26
2023-02-06T19:31:27.031Z,-3.30
2023-02-06T19:34:15.662Z,-3.34
2023-02-06T19:37:01.109Z,-3.38
2023-02-06T19:39:46.432Z,-3.39
2023-02-06T19:42:31.968Z,-3.42
2023-02-06T19:45:17.325Z,-3.47
2023-02-06T19:48:02.838Z,-3.51
2023-02-06T19:50:49.400Z,-3.56
2023-02-06T19:53:35.551Z,-3.63
2023-02-06T19:56:26.936Z,-3.71
2023-02-06T19:59:18.431Z,-3.79
2023-02-06T20:02:04.167Z,-3.89
2023-02-06T20:04:49.620Z,-3.99
2023-02-06T20:07:35.003Z,-4.12
2023-02-06T20:10:23.635Z,-4.25
2023-02-06T20:13:09.230Z,-4.39
2023-02-06T20:15:54.860Z,-4.49
2023-02-06T20:18:40.061Z,-4.64
2023-02-06T20:21:36.484Z,-4.76
2023-02-06T20:24:24.568Z,-4.80
2023-02-06T20:27:12.444Z,-4.85
2023-02-06T20:29:57.912Z,-4.89
2023-02-06T20:32:43.304Z,-4.95
2023-02-06T20:35:28.818Z,-5.01
2023-02-06T20:38:14.140Z,-5.06
2023-02-06T20:40:59.525Z,-5.14
2023-02-06T20:43:47.911Z,-5.24
2023-02-06T20:46:33.885Z,-5.29
2023-02-06T20:49:26.106Z,-5.34
2023-02-06T20:52:11.845Z,-5.39
2023-02-06T20:54:57.569Z,-5.41
2023-02-06T20:57:43.347Z,-5.44
2023-02-06T21:00:29.292Z,-5.46
2023-02-06T21:03:15.074Z,-5.49
2023-02-06T21:06:00.774Z,-5.52
2023-02-06T21:08:47.880Z,-5.55
2023-02-06T21:11:38.706Z,-5.61
2023-02-06T21:14:25.412Z,-5.68
2023-02-06T21:17:11.386Z,-5.74
2023-02-06T21:19:56.648Z,-5.81
2023-02-06T21:22:42.338Z,-5.87
2023-02-06T21:25:27.939Z,-5.90
2023-02-06T21:28:13.290Z,-5.96
2023-02-06T21:31:01.227Z,-5.96
2023-02-06T21:33:47.790Z,-6.02
2023-02-06T21:36:35.203Z,-6.14
2023-02-06T21:39:25.113Z,-6.18
2023-02-06T21:42:11.512Z,-6.20
2023-02-06T21:44:57.190Z,-6.21
2023-02-06T21:47:42.340Z,-6.24
2023-02-06T21:50:27.686Z,-6.26
2023-02-06T21:53:12.886Z,-6.29
2023-02-06T21:55:59.209Z,-6.32
2023-02-06T21:58:45.379Z,-6.35
2023-02-06T22:01:33.509Z,-6.38
2023-02-06T22:04:18.969Z,-6.42
2023-02-06T22:07:04.524Z,-6.46
2023-02-06T22:09:49.929Z,-6.50
2023-02-06T22:12:35.592Z,-6.53
2023-02-06T22:15:21.264Z,-6.58
2023-02-06T22:18:10.237Z,-6.63
2023-02-06T22:21:14.328Z,-6.66
2023-02-06T22:24:05.485Z,-6.68
2023-02-06T22:26:51.202Z,-6.71
2023-02-06T22:29:36.499Z,-6.73
2023-02-06T22:32:21.865Z,-6.75
2023-02-06T22:35:07.213Z,-6.77
2023-02-06T22:37:52.720Z,-6.77
2023-02-06T22:40:38.307Z,-6.76
2023-02-06T22:43:23.705Z,-6.77
2023-02-06T22:46:17.215Z,-6.77
2023-02-06T22:49:04.524Z,-6.75
2023-02-06T22:51:52.671Z,-6.72
2023-02-06T22:54:38.212Z,-6.66
2023-02-06T22:57:27.726Z,-6.59
2023-02-06T23:00:18.423Z,-6.49
2023-02-06T23:03:04.665Z,-6.40
2023-02-06T23:05:49.958Z,-6.32
2023-02-06T23:08:36.934Z,-6.30
2023-02-06T23:11:23.178Z,-6.31
2023-02-06T23:14:10.643Z,-6.33
2023-02-06T23:16:56.902Z,-6.37
2023-02-06T23:19:42.292Z,-6.39
2023-02-06T23:22:27.523Z,-6.45
2023-02-06T23:25:15.947Z,-6.47
2023-02-06T23:28:01.772Z,-6.49
2023-02-06T23:30:47.209Z,-6.52
2023-02-06T23:33:32.930Z,-6.58
2023-02-06T23:36:20.544Z,-6.63
2023-02-06T23:39:06.468Z,-6.66
2023-02-06T23:41:51.829Z,-6.73
2023-02-06T23:44:37.145Z,-6.82
2023-02-06T23:47:22.745Z,-6.86
2023-02-06T23:50:08.612Z,-6.91
2023-02-06T23:52:54.418Z,-6.95
2023-02-06T23:55:40.039Z,-6.96
2023-02-06T23:58:25.844Z,-7.02
